4th Annual Haunted Hustle 5K Trail Run

back to results

Oct. 26, 2008

4th Annual Haunted Hustle 5K Trail Run
Ann Arbor, Mi
Provided by Gary Olsen


Overall Female Open Winners

Place Name City Bib No Age Overall Time Pace
1 Jennifer Hutchison New Hudson MI 368 29 7 19:40.2 6:21/M

Overall Female Masters Winners

Place Name City Bib No Age Overall Time Pace
1 Betty Mooduszewsk 426 46 21 22:24.4 7:14/M

Female 10 & Under

Place Name City Bib No Age Overall Time Pace
1 Claudia Maguire Ann Arbor MI 182 9 44 25:46.1 8:19/M
2 Katie Gilbert Ann Arbor MI 260 10 85 29:34.8 9:32/M
3 Katie Fedoronko 432 10 108 33:26.3 10:47/M

Female 11 to 14

Place Name City Bib No Age Overall Time Pace
1 Katie Adler Dexter MI 422 13 24 22:39.4 7:18/M
2 Megan Lynch Whitmore Lake MI 346 12 26 22:54.7 7:23/M
3 Emmakale Conlin Tecumseh MI 444 14 39 24:45.1 7:59/M
4 Abbie Betzoldt Dexter MI 178 12 41 25:13.9 8:08/M
5 Alexa Earls Canton MI 193 11 42 25:15.9 8:09/M
6 Caylin Waters Plymouth MI 606 11 54 27:06.8 8:45/M
7 Tressa Stapleton 399 13 56 27:10.1 8:46/M
8 Anna Fedoronko 431 12 66 27:46.5 8:57/M
9 Dana Tessmer Dexter MI 277 11 67 27:53.3 9:00/M

Female 15 to 19

Place Name City Bib No Age Overall Time Pace
1 Faith Taylor Ann Arbor MI 418 16 53 27:03.1 8:44/M
2 Alyson Halpert Ann Arbor MI 414 17 82 29:06.5 9:23/M
3 Julia Mogerman Ann Arbor MI 406 16 84 29:32.0 9:32/M
4 Lydia Austin Ann Arbor MI 421 17 89 29:47.8 9:36/M
5 Quinn Burrell Ann Arbor MI 413 17 91 30:37.6 9:53/M
6 Blythe Moreland Ann Arbor MI 416 17 93 30:58.4 9:59/M
7 Sasha Lazare Ann Arbor MI 419 17 94 31:00.8 10:00/M
8 Shoshana Schultz-Purves Ann Arbor MI 402 17 95 31:01.8 10:00/M
9 Lisa Raymond Ann Arbor MI 415 17 102 32:24.4 10:27/M
10 Evalyn Carter Ypsilanti MI 401 17 103 32:37.3 10:31/M
11 Maya Bassett-Kennedy Ann Arbor MI 412 17 113 35:26.8 11:26/M

Female 20 to 24

Place Name City Bib No Age Overall Time Pace
1 Becky Simon Ann Arbor MI 236 24 51 26:52.4 8:40/M
2 Cathy Twu Ann Arbor MI 313 20 61 27:40.5 8:55/M
3 Kelli Marshall Monroe MI 237 24 88 29:41.1 9:35/M
4 Lauren Sigler Saline MI 322 23 100 32:19.7 10:25/M
5 Nicole Piazza Saline MI 332 23 101 32:19.9 10:25/M
6 Heather Cobb 367 23 107 33:18.2 10:45/M

Female 25 to 29

Place Name City Bib No Age Overall Time Pace
1 Chelsea Earls Farmington Hills M 239 25 9 19:53.8 6:25/M
2 Helen Fuller Ann Arbor MI 136 26 12 20:58.6 6:46/M
3 Chelsey Bess Cincinnati OH 234 25 57 27:16.5 8:48/M

Female 30 to 34

Place Name City Bib No Age Overall Time Pace
1 Elizabeth Muntean Ann Arbor MI 215 32 49 26:28.2 8:32/M
2 Tisha Moore YPSILANTI MI 244 33 72 27:59.9 9:02/M
3 Tara Truax Ypsilanti MI 381 31 112 34:46.6 11:13/M
4 Barb Wiens Ann Arbor MI 382 31 115 37:35.0 12:07/M

Female 35 to 39

Place Name City Bib No Age Overall Time Pace
1 Tracey Cohen Farmington Hills M 384 37 27 22:56.3 7:24/M
2 Amy Fakaowski 453 35 31 23:14.7 7:30/M
3 Kelly Fedele Southgate MI 393 38 55 27:09.0 8:45/M
4 Jacqui Robbins 460 37 58 27:21.5 8:49/M
5 Jennifer Blackwell Ann Arbor MI 320 37 63 27:44.0 8:57/M
6 Frances Betzoldt Dexter MI 179 38 78 28:43.0 9:16/M
7 Jennifer Cullen Ypsilanti MI 168 36 96 31:22.7 10:07/M
8 Katherine Klein 433 39 98 32:11.6 10:23/M
9 Patricia Birchmeier Dexter MI 249 38 104 32:37.5 10:31/M

Female 40 to 44

Place Name City Bib No Age Overall Time Pace
1 Cheryl Pagliarini Chelsea MI 370 44 46 26:09.7 8:26/M
2 Laura Wood Ann Arbor MI 336 41 69 27:56.6 9:01/M
3 Lori Garner Ann Arbor MI 331 40 70 27:56.8 9:01/M
4 Miriam Taylor Ypsilanti MI 210 40 71 27:58.4 9:01/M
5 Kristine Wisner Pinckney MI 252 40 75 28:09.0 9:05/M
6 Lisa Reilly Northville MI 337 43 77 28:19.4 9:08/M
7 Paula Wishart Ann Arbor MI 388 44 83 29:21.8 9:28/M
8 Kathleen Thurn Plymouth MI 246 43 87 29:39.4 9:34/M
9 Deb Reed Dexter MI 423 44 90 29:55.2 9:39/M
10 J Leigh Koritke Ann Arbor MI 438 41 116 37:35.8 12:07/M

Female 45 to 49

Place Name City Bib No Age Overall Time Pace
1 Dawn Massie Ypsilanti MI 240 46 35 23:56.7 7:43/M
2 Julia Collins Ypsilanti MI 224 46 43 25:38.1 8:16/M

Female 50 to 54

Place Name City Bib No Age Overall Time Pace
1 Nancy Stevenson Golden CA 250 54 33 23:28.6 7:34/M
2 Martha Quiroga Temperance MI 207 53 92 30:57.7 9:59/M

Female 55 to 59

Place Name City Bib No Age Overall Time Pace
1 Linda McGiness Lake City MI 366 58 109 34:26.5 11:06/M

Female 60 & Over

Place Name City Bib No Age Overall Time Pace
1 Ron Fedoronko Warren MI 350 65 65 27:45.1 8:57/M

No Age Given

Place Name City Bib No Age Overall Time Pace
1 Lindsey LaPointe Kalamazoo MI 149 99 68 27:53.6 9:00/M

Overall Male Open Winners

Place Name City Bib No Age Overall Time Pace
1 Scott Westover Ann Arbor MI 440 36 1 16:46.3 5:25/M

Overall Male Masters Winners

Place Name City Bib No Age Overall Time Pace
1 John Tarkowski Northville MI 345 55 3 18:39.3 6:01/M

Male 10 & Under

Place Name City Bib No Age Overall Time Pace
1 Andrew Blower Ypsilanti MI 241 10 14 21:32.2 6:57/M
2 Aaron Milley Saline MI 458 10 30 23:14.1 7:30/M
3 Michael Rigney Ann Arbor MI 177 10 62 27:42.8 8:56/M

Male 11 to 14

Place Name City Bib No Age Overall Time Pace
1 Adam Milley Saline MI 459 13 10 20:15.6 6:32/M
2 Mara Bottomley Dexter MI 315 13 19 22:16.3 7:11/M
3 Matthew Erickson Ann Arbor MI 173 12 28 23:02.7 7:26/M
4 Benjamin Nicholas Ann Arbor MI 324 11 34 23:54.5 7:43/M
5 Chris Hoban Ann Arbor MI 310 11 50 26:36.4 8:35/M
6 Leo Felty Pinckney MI 235 11 60 27:39.6 8:55/M

Male 15 to 19

Place Name City Bib No Age Overall Time Pace
1 Joseph Martin Ypsilanti MI 216 15 4 18:45.2 6:03/M
2 Corey Birchmeier Dexter MI 248 15 5 18:55.1 6:06/M
3 Nicholas Machinski Ann Arbor MI 188 18 6 19:28.7 6:17/M
4 Neil Kecher 452 18 11 20:35.5 6:38/M
5 Logan Stagg Ann Arbor MI 417 18 48 26:24.6 8:31/M
6 Jamal Fakih Southgate MI 462 15 79 28:49.3 9:18/M
7 David McMillan Ypsilanti MI 420 17 80 28:53.9 9:19/M
8 Jun Sik Won Ann Arbor MI 407 17 81 29:04.6 9:23/M
9 Trevor Ford Ann Arbor MI 485 17 110 34:31.3 11:08/M
10 Calin St Henry Ann Arbor MI 400 17 111 34:31.8 11:08/M

Male 20 to 24

Place Name City Bib No Age Overall Time Pace
1 Scott Riddle Ann Arbor MI 300 22 2 17:52.5 5:46/M
2 Michael Sims Grosse Ile MI 455 24 29 23:04.0 7:26/M
3 Anthony Pardo Westland MI 358 22 45 25:51.3 8:20/M

Male 25 to 29

Place Name City Bib No Age Overall Time Pace
1 Adam Liberatore Ann Arbor MI 500 29 13 21:04.9 6:48/M

Male 30 to 34

Place Name City Bib No Age Overall Time Pace
1 Timothy Carmody Plymouth MI 342 30 17 21:56.5 7:05/M
2 Anthony Hanks Livonia MI 391 33 18 21:59.2 7:05/M
3 Tom Cargill Jackson MI 281 31 106 33:17.8 10:44/M

Male 35 to 39

Place Name City Bib No Age Overall Time Pace
1 James Dowling 461 38 15 21:35.0 6:58/M
2 Jeff Sloan Ann Arbor MI 441 38 16 21:40.9 6:59/M
3 Jonathan Kramer Brighton MI 289 35 37 24:31.0 7:55/M

Male 40 to 44

Place Name City Bib No Age Overall Time Pace
1 Richard Pushies Westland MI 194 41 25 22:51.2 7:22/M
2 Todd LaHote Ann Arbor MI 211 44 52 26:56.6 8:41/M
3 Brian Fedoronko 430 41 64 27:44.5 8:57/M
4 Doug Pagliarini Chelsea MI 369 43 73 28:03.5 9:03/M
5 Steven Jordan Northville MI 338 40 76 28:13.7 9:06/M
6 Jeff Gilbert Ann Arbor MI 261 42 86 29:37.4 9:33/M
7 Art Baven 335 40 114 36:23.2 11:44/M

Male 45 to 49

Place Name City Bib No Age Overall Time Pace
1 Rob French Dexter MI 233 46 8 19:48.8 6:23/M
2 Brian Begeman Petersburg MI 232 47 20 22:19.8 7:12/M
3 Brian Wright South Lyon MI 247 46 32 23:23.4 7:33/M
4 Michael Connolly Ypsilanti MI 185 46 36 24:20.8 7:51/M
5 Jim Zittel Waterford MI 439 45 38 24:43.0 7:58/M
6 Timothy hoban Ann Arbor MI 309 48 59 27:26.5 8:51/M
7 Jamie Cullen Ypsilanti MI 169 45 105 32:52.0 10:36/M

Male 50 to 54

Place Name City Bib No Age Overall Time Pace
1 John Powers Ann Arbor MI 377 51 23 22:38.8 7:18/M
2 Bob Ellis Taylor MI 360 53 74 28:05.2 9:04/M
3 Jeff Barnett Ann Arbor MI 447 53 99 32:11.8 10:23/M

Male 55 to 59

Place Name City Bib No Age Overall Time Pace
1 Richard Tolman Ann Arbor MI 301 55 22 22:29.3 7:15/M
2 Dan Blower Ypsilanti MI 242 58 40 24:53.3 8:02/M
3 Richard Porte Dearborn MI 385 57 97 31:38.1 10:12/M

No Age Given

Place Name City Bib No Age Overall Time Pace
1 Participant Unknown 450 99 47 26:10.0 8:26/M




Place Name City Bib No Age Time Pace
1 Ian Campbell Ann Arbor MI 258 10 24:42.8 7:58/M
2 Cameryn Boyd Ann Arbor MI 284 9 25:29.1 8:13/M
3 Sharon Rodriguez Adrian MI 362 57 25:46.8 8:19/M
4 Nick Angerman Ann Arbor MI 395 11 25:54.5 8:21/M
5 David Ridenour Wabash IN 291 69 26:07.9 8:25/M
6 Gabrielle Wink Brighton MI 125 10 26:30.5 8:33/M
7 Kyle McLaughlin Ann Arbor MI 228 10 26:45.3 8:38/M
8 Jennifer Kramer Brighton MI 288 34 26:46.2 8:38/M
9 Emily Grossman Dexter MI 44 10 27:06.6 8:45/M
10 Anna Krull Dexter MI 146 99 27:06.9 8:45/M
11 Gary Hanafee Detroit MI 947 53 27:20.6 8:49/M
12 Colin Mercer Ann Arbor MI 405 17 27:55.6 9:00/M
13 Leo Deng Ann Arbor MI 465 46 28:03.4 9:03/M
14 Justin Skiver Dexter MI 293 12 28:04.3 9:03/M
15 Jan Stegemann Ann Arbor MI 200 41 28:09.8 9:05/M
16 Staci Blackburn Temperance MI 130 99 28:17.2 9:07/M
17 Hiroyuki Shinohara Ann Arbor MI 467 53 28:30.8 9:12/M
18 Gabrielle Peck Ann Arbor MI 84 10 28:51.7 9:18/M
19 Megan Gizzi Dundee MI 42 13 29:00.0 9:21/M
20 Jacalyn Overdier Ann Arbor MI 81 8 29:03.8 9:22/M
21 Georgie Reynolds Chelsea MI 379 7 29:04.1 9:23/M
22 Paul Steiger Ann Arbor MI 491 11 29:09.1 9:24/M
23 Laura Good Ann Arbor MI 139 99 29:10.8 9:25/M
24 Sharon Rodriguez Adrian MI 361 50 29:11.0 9:25/M
25 Tina Galia Ann Arbor MI 38 9 29:11.8 9:25/M
26 Grace Tremonti Ann Arbor MI 119 9 29:12.0 9:25/M
27 David Tremonti Ann Arbor MI 365 45 29:29.5 9:31/M
28 Adrienne Licata Ann Arbor MI 222 34 29:41.1 9:35/M
29 Sarah DiPonio Canton MI 269 8 29:42.5 9:35/M
30 Julia Karr Ann Arbor MI 878 13 29:51.5 9:38/M
31 Patricia Nease Ann Arbor MI 879 13 29:52.8 9:38/M
32 Caroline Skiver Dexter MI 112 10 29:55.3 9:39/M
33 Mary Hermann Chelsea MI 52 10 29:57.1 9:40/M
34 Gianni Leone Bloomfield Hills M 469 7 29:57.5 9:40/M
35 Tracy Leone Bloomfield Hills M 468 40 29:58.4 9:40/M
36 Sean Skiver Dexter MI 295 40 29:59.5 9:40/M
37 Roxanna Overdier Ann Arbor MI 476 36 30:08.6 9:43/M
38 Hannah Simon Ann Arbor MI 950 10 30:17.6 9:46/M
39 Micaela Keller Ann Arbor MI 63 10 30:17.9 9:46/M
40 Robert Bodary Ann Arbor MI 951 49 30:18.5 9:46/M
41 Susie Simon Ann Arbor MI 952 41 30:19.2 9:47/M
42 Kasumi Shinohara Ann Arbor MI 466 22 30:19.4 9:47/M
43 Amanda Breuninger Dexter MI 12 10 30:20.5 9:47/M
44 Grace Wilson Dexter MI 123 10 30:21.8 9:47/M
45 Lauralyn Bottom Ann Arbor MI 243 32 30:40.8 9:54/M
46 Jennie Breuninger Dexter MI 353 46 30:45.6 9:55/M
47 Sophia French Dexter MI 37 10 30:47.1 9:56/M
48 Steve Moody Ann Arbor MI 304 40 31:01.1 10:00/M
49 Doug Staulter Dexter MI 354 54 31:11.8 10:04/M
50 Lara Pierce Ann Arbor MI 85 9 31:20.7 10:06/M
51 Steve Pierce ann Arbor MI 314 40 31:21.0 10:07/M
52 Lauren Morris Dundee MI 180 99 31:41.7 10:13/M
53 Laura Deng Ann Arbor MI 26 8 31:42.2 10:14/M
54 Molly Ryan Ann Arbor MI 339 20 31:42.7 10:14/M
55 Leetal Birger Ann Arbor MI 340 20 31:44.2 10:14/M
56 Ingrid Ford Ann Arbor MI 492 10 31:45.2 10:15/M
57 Lauren Hunter Ypsilanti MI 57 10 31:52.7 10:17/M
58 Veronica Correa Ann Arbor MI 19 10 31:55.8 10:18/M
59 Madison Maynard 386 99 32:03.1 10:20/M
60 Akane Kawamoto Ann Arbor MI 62 10 32:03.3 10:20/M
61 Melissa Gerhardt Grosse Ile MI 170 25 32:18.0 10:25/M
62 Allison Gerhardt Grosse Ile MI 171 25 32:18.5 10:25/M
63 Alyssa Bednarski Grass Lake MI 280 8 32:25.8 10:27/M
64 Kathy Kult Hartland MI 203 43 32:33.7 10:30/M
65 Kathryn English Ann Arbor MI 133 99 32:35.5 10:31/M
66 Mandy McIvor Swartz Creek MI 153 99 32:36.1 10:31/M
67 Andrea Brown Farmington MI 131 99 32:36.5 10:31/M
68 Ian Rood Ann Arbor MI 372 10 32:37.2 10:31/M
69 Nadina Hassan 48 10 33:00.0 10:39/M
70 Shannon Wagner Novi MI 165 99 33:00.2 10:39/M
71 Kai Hoffman Ann Arbor MI 54 10 33:00.9 10:39/M
72 Lauren O'Toole Chelsea MI 265 12 33:02.0 10:39/M
73 Martha Carlson Ann Arbor MI 205 47 33:04.0 10:40/M
74 Sally Smith Dearborn MI 160 99 33:19.1 10:45/M
75 Claire Deng Ann Arbor MI 25 8 33:19.3 10:45/M
76 Sydney Stites Ann Arbor MI 117 10 33:25.5 10:47/M
77 Sue Ridenour Wabash IN 321 63 33:30.1 10:48/M
78 Irina Steiger Ann Arbor MI 116 8 33:32.8 10:49/M
79 Lauren Foyteck Ann Arbor MI 36 9 33:39.5 10:51/M
80 Cindy Stevens Ann Arbor MI 238 40 33:40.1 10:52/M
81 Kendra Sloan Ann Arbor MI 113 9 34:19.1 11:04/M
82 Sarah Conlin Tecumseh MI 443 37 34:19.4 11:04/M
83 Catherine Conlin Tecumseh MI 445 10 34:23.3 11:05/M
84 Alyssa Kralewski Dexter MI 262 10 34:23.8 11:05/M
85 Clara Blakelock Ann Arbor MI 344 23 34:24.2 11:06/M
86 NINA WHITE Ann Arbor MI 709 25 34:27.8 11:07/M
87 Kate Winger Ann Arbor MI 124 10 34:28.5 11:07/M
88 Gail Winger Ann Arbor MI 181 38 34:32.3 11:08/M
89 Diana Hassan Ann Arbor MI 484 46 34:33.4 11:09/M
90 Robert Duerksen Ann Arbor MI 487 47 35:11.2 11:21/M
91 Carrie Duerksen Ann Arbor MI 29 9 35:22.2 11:25/M
92 Hannah Bloomfield Ann Arbor MI 7 10 35:23.1 11:25/M
93 Brian Reid Ann Arbor MI 404 17 35:24.4 11:25/M
94 Sophie LePottier Ann Arbor MI 69 8 35:24.9 11:25/M
95 Morgan Chrisman Chelsea MI 264 10 35:41.2 11:31/M
96 Matt Charney Dearborn MI 489 36 35:47.1 11:33/M
97 Lauren Charney Ann Arbor MI 18 8 35:47.9 11:33/M
98 Cassandra Wooley Ann Arbor MI 127 8 35:48.1 11:33/M
99 Yves Le Pottier Ann Arbor MI 446 42 35:49.5 11:33/M
100 Bruce Woodside Ann Arbor MI 334 46 35:51.0 11:34/M

Place Name City Bib No Age Time Pace
101 Savannah Hagen Kalamazoo MI 140 99 35:52.4 11:34/M
102 Theresa Libs Ann Arbor MI 227 37 35:53.5 11:35/M
103 Madeline Libs Ann Arbor MI 71 9 35:59.0 11:36/M
104 Ruby Dudley Ann Arbor MI 28 8 35:59.3 11:36/M
105 Tiffany Pruss Beleville MI 88 9 36:02.8 11:37/M
106 Chester Pruss Belleville MI 464 42 36:05.3 11:38/M
107 Isabella Davidson Ann Arbor MI 21 10 36:05.7 11:38/M
108 Elizabeth Lane Livonia MI 148 99 36:08.7 11:39/M
109 Anne Danowski Hartland MI 204 51 36:13.5 11:41/M
110 Kellie LaBarr Ypsilanti MI 175 35 36:14.0 11:41/M
111 beth boote Gregory MI 219 39 36:28.7 11:46/M
112 Logan Duddy Ann Arbor MI 396 17 36:29.0 11:46/M
113 Kayla Bednarsky 448 12 36:31.1 11:47/M
114 Linda Grove Grass Lake MI 355 12 36:31.6 11:47/M
115 Nicole Sziraki Jackson MI 389 12 36:42.0 11:50/M
116 Zoe Carrillo Ann Arbor MI 17 10 36:42.2 11:50/M
117 Aveeona Johnson Ann Arbor MI 61 9 36:42.4 11:50/M
118 Jessica Leigh Wayne MI 68 8 36:54.6 11:54/M
119 Caryl Myranda Dundee MI 77 12 36:56.1 11:55/M
120 Rachel Powers Ann Arbor MI 376 10 36:59.2 11:56/M
121 Shay Pinhey Ann Arbor MI 231 11 37:10.5 11:59/M
122 Kate Pinhey Ann Arbor MI 230 47 37:13.0 12:00/M
123 Zoe Jazwiski Ann Arbor MI 436 20 37:13.6 12:00/M
124 John Janevic Ann Arbor MI 192 41 37:14.2 12:01/M
125 Sophia Janevic Ann Arbor MI 58 8 37:26.8 12:05/M
126 Kimberly Turnquist Westland MI 206 32 37:27.0 12:05/M
127 Rebecca Papp Ann Arbor MI 82 9 37:27.5 12:05/M
128 Wendy Rothman Ann Arbor MI 307 41 37:27.7 12:05/M
129 Kendra Rothman Britton MI 98 12 37:28.2 12:05/M
130 Rhiannon Tomtishen Ann Arbor MI 163 99 37:29.7 12:05/M
131 Michelle Bies Ann Arbor MI 706 42 37:29.9 12:05/M
132 Alita Boyse-Peacor Ann Arbor MI 11 8 37:43.5 12:10/M
133 Kelly Daniels Petersburg MI 20 13 37:44.7 12:10/M
134 Hallie Palmer Dundee MI 272 12 37:45.6 12:11/M
135 Madeline Bacolor Ann Arbor MI 3 9 37:47.2 12:11/M
136 Ella Mosher Ann Arbor MI 882 9 37:49.0 12:12/M
137 Lisa Gizzi Dundee MI 138 99 37:54.7 12:14/M
138 Ko Kawamoto Ann Arbor MI 428 12 38:04.6 12:17/M
139 Sherry Graham Pinckney MI 290 45 38:12.1 12:19/M
140 Susan Crabb Ann Arbor MI 480 54 38:32.1 12:26/M
141 Jennifer Emery Monroe MI 271 11 38:49.9 12:31/M
142 Ashley Barnier Dundee MI 4 12 38:50.1 12:32/M
143 Allie Reynolds Chelsea MI 94 12 39:01.6 12:35/M
144 Alayna Schweda-Campbel Grass Lake MI 105 10 39:03.8 12:36/M
145 Sophia Kleinheksel Ann Arbor MI 66 10 39:05.4 12:36/M
146 Abby Kleinheksel Ann Arbor MI 434 13 39:05.7 12:36/M
147 Michael Kleinheksel Ann Arbor MI 435 43 39:09.2 12:38/M
148 Grace Lovelace Ypsilanti MI 72 9 39:13.0 12:39/M
149 Sarah Lovelace Ypsilanti MI 490 33 39:13.7 12:39/M
150 Elise Crause Ann Arbor MI 477 8 39:14.8 12:39/M
151 Ingrid Crause Ann Arbor MI 478 45 39:15.0 12:40/M
152 Eleanor Davis Ann Arbor MI 23 8 39:15.5 12:40/M
153 Emma Tolman Ann Arbor MI 162 99 39:17.1 12:40/M
154 Maya Burris Ann Arbor MI 15 10 39:17.3 12:40/M
155 Isabelle Jenkins Ann Arbor MI 59 8 39:23.1 12:42/M
156 Paige Gibb Ann Arbor MI 40 8 39:23.5 12:42/M
157 Naela Jenkins 144 99 39:27.1 12:44/M
158 Erin Koch Chelsea MI 273 11 39:30.4 12:45/M
159 Dan Lee Ann Arbor MI 67 9 39:30.6 12:45/M
160 Anna McEldery Grass Lake MI 282 8 39:55.7 12:53/M
161 Kathleen Ford Ann Arbor MI 493 53 39:59.8 12:54/M
162 Vritti Kharbanda Ann Arbor MI 64 9 40:11.2 12:58/M
163 Vikram Kharabanda Ann Arbor MI 704 42 40:14.0 12:59/M
164 Margaret Armbruster Ann Arbor MI 1 8 40:15.1 12:59/M
165 Emily Armbruster Ann Arbor MI 316 17 40:49.8 13:10/M
166 Danelle Mosher Ann Arbor MI 881 42 40:50.0 13:10/M
167 Ellen Reed Ann Arbor MI 93 8 40:52.8 13:11/M
168 Morgan Gallimore Ann Arbor MI 39 8 40:54.0 13:12/M
169 Teddi Reynolds Chelsea MI 380 10 40:54.6 13:12/M
170 Diane LaHaie Dearborn MI 147 99 40:54.9 13:12/M
171 Jillian Mckenna Ann Arbor MI 73 8 41:01.2 13:14/M
172 Kristi McKenna Ann Arbor MI 707 43 41:03.1 13:15/M
173 Davney Holley Ann Arbor MI 55 9 41:03.7 13:15/M
174 Kris Holley Ann Arbor MI 308 43 41:15.8 13:18/M
175 Molly Rose Powers Ann Arbor MI 87 10 41:16.2 13:19/M
176 Isa Wishart Ann Arbor MI 613 9 41:39.2 13:26/M
177 Pamela Barylski Hartland MI 327 42 41:42.9 13:27/M
178 Martha Angerman Ann Arbor MI 394 51 41:47.3 13:29/M
179 Kathleen Wilson Dexter MI 457 41 41:49.3 13:29/M
180 Kate Burns Ann Arbor MI 14 9 41:55.2 13:31/M
181 Eileen Hoban Ann Arbor MI 311 13 41:58.0 13:32/M
182 Leah Bowerbank Ann Arbor MI 9 10 41:59.0 13:33/M
183 Julie Perea Ann Arbor MI 155 99 41:59.4 13:33/M
184 Olivia Gregory Ann Arbor MI 43 8 42:02.3 13:34/M
185 Steven Gregory 451 44 42:03.3 13:34/M
186 Vanessa Wooley Ann Arbor MI 128 7 42:04.5 13:34/M
187 Renee Woolley Ann Arbor MI 885 37 42:04.9 13:34/M
188 Taylor Weatherford Ann Arbor MI 121 8 42:05.3 13:35/M
189 Katie Kreder Ann Arbor MI 145 99 42:05.5 13:35/M
190 Isabella DiBlassio Ann Arbor MI 27 9 42:15.3 13:38/M
191 Chloe Weise Ann Arbor MI 122 10 42:16.7 13:38/M
192 Isaiah Davis Ann Arbor MI 498 11 42:21.0 13:40/M
193 Janay Ramirez Ann Arbor MI 91 10 42:21.8 13:40/M
194 Emily Fauser Dexter MI 263 11 42:22.3 13:40/M
195 Cameron Richard Ann Arbor MI 95 9 42:23.2 13:40/M
196 Emily Gunderson Ann Arbor MI 45 10 42:24.1 13:41/M
197 Mary Masiarak-Byars Harrison Twp. MI 151 99 42:25.0 13:41/M
198 Maria Oginsky Ann Arbor MI 80 9 42:25.8 13:41/M
199 Stacey Richard Ann Arbor MI 157 99 42:38.1 13:45/M
200 McKenna Lucas Chelsea MI 275 10 42:39.9 13:45/M

Place Name City Bib No Age Time Pace
201 Mak Gunderson Ann Arbor MI 488 46 42:45.7 13:47/M
202 Madison Maynard Jackson MI 218 8 42:46.1 13:48/M
203 Suzi Bednarski 183 99 42:46.3 13:48/M
204 Brigid Aslin Dexter MI 2 11 42:47.0 13:48/M
205 Elizabeth Aslin Dexter MI 364 39 42:54.0 13:50/M
206 Phoebe Clacher Chelsea MI 276 10 42:58.6 13:52/M
207 Anna Argento Chelsea MI 283 10 43:00.7 13:52/M
208 Molly Beal Grass Lake MI 279 9 43:06.4 13:54/M
209 Kailynn Barton Ann Arbor MI 5 8 43:19.8 13:58/M
210 Mairead Erhardt Ann Arbor MI 33 8 43:20.5 13:59/M
211 Grace Knorr 946 99 43:20.7 13:59/M
212 Brooke Blackledge Grass Lake MI 274 10 43:22.9 13:59/M
213 D Barton Ann Arbor MI 945 42 43:25.0 14:00/M
214 Cora Newman Ann Arbor MI 482 7 43:25.2 14:00/M
215 Deanna Lindstrom Ann Arbor MI 481 38 43:28.8 14:01/M
216 Tiana Johnson Ann Arbor MI 60 9 43:29.8 14:02/M
217 Kim Beal 454 33 43:30.8 14:02/M
218 Destiny Esthers 375 99 43:31.7 14:02/M
219 Tami McDunn Ann Arbor MI 152 99 43:38.6 14:05/M
220 Jennifer Krolowski 429 41 43:48.5 14:08/M
221 Marilyn Royle Royle Grass Lake MI 223 61 43:49.7 14:08/M
222 Sarah Gizzi Dundee MI 41 12 43:53.6 14:09/M
223 Justice Shover Dundee MI 109 12 43:54.3 14:10/M
224 Moryah Fox Dundee MI 35 12 43:55.0 14:10/M
225 Ede Woodyard Ann Arbor MI 318 6 43:55.3 14:10/M
226 Nancy Van Alstine Ann Arbor MI 164 99 44:41.6 14:25/M
227 Maya Millette Ann Arbor MI 75 8 44:41.8 14:25/M
228 Zoe Shulman Superior Twp MI 199 5 44:43.2 14:25/M
229 Stuart Shulman Superior Twp MI 212 38 44:43.9 14:25/M
230 Callie Woodside Ann Arbor MI 126 9 44:44.6 14:26/M
231 Nancy French Dexter MI 305 46 44:47.8 14:27/M
232 Reates Curry Ann Arbor MI 208 46 44:48.7 14:27/M
233 Madison VanDecreek Ann Arbor MI 120 9 44:49.6 14:27/M
234 Kimberly VanDecreek Ann Arbor MI 383 37 44:56.7 14:30/M
235 Ruthie Blower Ypsilanti MI 312 13 44:58.3 14:30/M
236 Natalie LaHote Ann Arbor MI 214 9 45:09.6 14:34/M
237 Maureen LaHote Ann Arbor MI 213 43 45:09.9 14:34/M
238 Reiley Lewis Ann Arbor MI 150 99 45:22.3 14:38/M
239 Sue Reynolds Chelsea MI 156 99 45:22.5 14:38/M
240 Grace Newman Ann Arbor MI 78 9 45:23.7 14:38/M
241 Judy Burns Ann Arbor MI 494 41 45:24.6 14:39/M
242 Liz Hrivnak Northville MI 143 99 45:28.6 14:40/M
243 Chris Skiver Dexter MI 294 42 45:32.9 14:41/M
244 Maysa Redissi Ann Arbor MI 463 6 45:37.9 14:43/M
245 Logann Poley Grass Lake MI 268 8 45:38.3 14:43/M
246 Alika Shover Dundee MI 442 34 45:40.1 14:44/M
247 Dawn Cuddie Grass Lake MI 132 99 45:40.4 14:44/M
248 Catherine Pilon Ann Arbor MI 86 10 45:40.9 14:44/M
249 Ashley Harlock Dexter MI 883 7 45:42.0 14:45/M
250 David Harlock Dexter MI 884 37 45:43.8 14:45/M
251 Winnie Wood Ann Arbor MI 341 45 45:46.9 14:46/M
252 Annie Else Ann Arbor MI 32 9 45:50.0 14:47/M
253 Lindsay Gorlitz Berwyn MI 299 14 46:04.4 14:52/M
254 McKenzie Pytlak Redford MI 297 8 46:11.9 14:54/M
255 Megan McLaughlin Ann Arbor MI 74 9 46:25.9 14:58/M
256 Vallerie McLaughlin Ann Arbor MI 229 45 46:26.6 14:59/M
257 Kendra Brooks Belleville MI 13 9 46:58.7 15:09/M
258 Darlene Molenda 154 99 47:04.4 15:11/M
259 Nadina Hassan Ann Arbor MI 285 10 47:04.7 15:11/M
260 Jillian Nelson Belleville MI 267 9 47:04.8 15:11/M
261 Mackenzie Rasmussen Ann Arbor MI 92 9 47:06.7 15:12/M
262 Ken Rasmussen Ann Arbor MI 471 46 47:06.8 15:12/M
263 Hyacinth Schumaker 159 99 47:08.8 15:12/M
264 Megan Rood Ann Arbor MI 97 8 47:09.1 15:13/M
265 Mira Shetty Ann Arbor MI 108 9 47:47.7 15:25/M
266 Melinda Mitchell Melvindale MI 356 24 47:48.5 15:25/M
267 Olivia LaHote Ann Arbor MI 605 6 47:50.8 15:26/M
268 Melissa Mitchell Melvindale MI 363 24 47:56.2 15:28/M
269 Samona Dunn Ann Arbor MI 30 9 47:56.4 15:28/M
270 Joe Hammoand Ypsilanti MI 449 48 48:05.4 15:31/M
271 Jasmine Birdsong Monroe MI 6 11 48:12.3 15:33/M
272 Amanda Staffeld Dundee MI 114 12 48:14.3 15:34/M
273 Cheyenne Herron Dundee MI 53 12 48:15.1 15:34/M
274 John Austin 456 46 48:33.0 15:40/M
275 Emily Sanders Ann Arbor MI 104 9 48:34.1 15:40/M
276 Nermean Hammond Ypsilanti MI 46 9 48:34.3 15:40/M
277 Lindsie Rogers Ann Arbor MI 96 9 48:34.5 15:40/M
278 Anne Rogers 158 99 48:35.9 15:40/M
279 Jon Galia Ann Arbor MI 359 57 48:38.8 15:41/M
280 Yumiko Kawamoto Ann Arbor MI 427 39 48:45.1 15:44/M
281 Shu Kawamoto 1123 5 48:45.4 15:44/M
282 MacKenna Anderson Jackson MI 278 9 49:33.8 15:59/M
283 Taylor Harris Grass Lake MI 47 8 49:43.5 16:02/M
284 Shawn Harris Grass Lake MI 424 35 49:46.6 16:03/M
285 Tracy Anderson Jackson MI 495 38 50:05.2 16:09/M
286 Julia Eggers Fenton MI 329 9 50:05.8 16:09/M
287 Karen Eggers Fenton MI 326 25 50:06.6 16:10/M
288 Mari Skinner Beleville MI 111 8 50:06.8 16:10/M
289 Hannah Homrick Dundee MI 56 99 50:22.4 16:15/M
290 Kortney Russell Dundee MI 100 12 50:24.5 16:15/M
291 Gary Barylski Hartland MI 328 60 50:25.7 16:16/M
292 Elaine Allore Ann Arbor ME 187 56 50:27.6 16:16/M
293 Patrick Eggers Fenton MI 325 43 50:30.1 16:17/M
294 Kelsea Pyne Ann Arbor MI 89 10 51:09.1 16:30/M
295 Erin Farbar Ann Arbor MI 134 99 51:09.7 16:30/M
296 Vidhya Rajaprabhakaran Ann Arbor MI 90 8 51:12.9 16:31/M
297 Christina Hamati 141 99 51:13.5 16:31/M
298 Laurie Galia 137 99 51:48.7 16:43/M
299 Julia Pytlak Redford MI 298 14 51:52.0 16:44/M
300 Brooke Boyst Ypsilanti MI 209 27 51:52.3 16:44/M

Place Name City Bib No Age Time Pace
301 Tracy Pytlak Redford MI 296 39 51:52.5 16:44/M
302 Naomi Woloshin Ann Arbor MI 302 51 52:38.8 16:59/M
303 Cheyenne Sampson Beleville MI 102 10 53:37.3 17:18/M
304 Maelan King Belleville MI 266 8 53:38.1 17:18/M
305 Jenna Sleiman Canton MI 270 10 53:39.3 17:18/M
306 Nadia Davis Beleville MI 22 8 53:39.8 17:18/M
307 Karen Stipe Tipton MI 161 99 53:40.1 17:19/M
308 Michele Rood Ann Arbor MI 373 40 53:40.7 17:19/M
309 Timothy Rood Ann Arbor MI 374 40 53:42.6 17:19/M
310 Pamela Lewandowski Ann Arbor MI 486 35 53:42.8 17:19/M
311 Maya Lewandowski Ann Arbor MI 70 8 53:57.6 17:24/M
312 Charlotte Sanders Ann Arbor MI 103 7 53:57.8 17:24/M
313 Vivian Sanders Ann Arbor MI 880 52 54:16.7 17:30/M
314 Kathy Moody Ann Arbor MI 303 40 54:51.4 17:42/M
315 Clara Moody Ann Arbor MI 76 7 54:54.2 17:43/M
316 107 197 475 99 55:52.1 18:01/M
317 Malinda Matney Ann Arbor MI 184 42 55:58.8 18:03/M
318 Hannah Williams Monroe MI 197 12 56:24.0 18:12/M
319 Catie Seegert Dundee MI 107 12 56:40.6 18:17/M
320 Sujata Shetty Ann Arbor MI 437 44 56:41.8 18:17/M
321 Katie Saalberg Ann Arbor MI 101 8 56:42.0 18:17/M
322 Ammi Barnier Dundee MI 226 35 56:42.8 18:17/M
323 Kaylee Schwisow Dundee MI 106 10 56:43.6 18:18/M
324 Sudha Rajaprabhakaran Ann Arbor MI 470 36 56:45.6 18:18/M
325 Bess Rothman Ann Arbor MI 99 9 56:56.5 18:22/M
326 Elena Stegemann Ann Arbor MI 201 40 59:28.1 19:11/M
327 Tomas Stegemann Ann Arbor MI 202 6 59:28.8 19:11/M
328 Brooke Birdsong ann arbor MI 196 33 59:40.6 19:15/M
329 Wendy Williams Monroe MI 195 38 59:41.6 19:15/M
330 Wendie Hagerman Ypsilanti MI 948 26 59:42.7 19:15/M
331 Jamie Hagerman Wayne MI 949 24 59:42.9 19:15/M
332 Alaina Pellar-Kosbar Ann Arbor MI 472 8 1:05:57.8 21:16/M
333 Kyle Pellar-Kosbar Ann Arbor MI 473 41 1:05:58.3 21:17/M
334 Jennifer Davis Ann Arbor MI 497 48 1:05:59.0 21:17/M
335 Chris Pellar-Kosban Ann Arbor MI 474 99 1:05:59.2 21:17/M
336 Daniel Davis Ann Arbor MI 499 47 1:05:59.4 21:17/M